sensor_id;sensor_type;location;lat;lon;timestamp;temperature;humidity
1379;DHT22;683;48.738;9.226;2023-06-10T00:00:05;17.70;68.30
1379;DHT22;683;48.738;9.226;2023-06-10T00:02:38;17.70;68.80
1379;DHT22;683;48.738;9.226;2023-06-10T00:05:06;17.60;69.20
1379;DHT22;683;48.738;9.226;2023-06-10T00:07:35;17.60;69.70
1379;DHT22;683;48.738;9.226;2023-06-10T00:10:04;17.50;69.90
1379;DHT22;683;48.738;9.226;2023-06-10T00:12:32;17.50;70.20
1379;DHT22;683;48.738;9.226;2023-06-10T00:15:06;17.40;70.60
1379;DHT22;683;48.738;9.226;2023-06-10T00:17:34;17.40;71.20
1379;DHT22;683;48.738;9.226;2023-06-10T00:20:07;17.40;71.60
1379;DHT22;683;48.738;9.226;2023-06-10T00:22:35;17.40;71.80
1379;DHT22;683;48.738;9.226;2023-06-10T00:25:04;17.30;71.80
1379;DHT22;683;48.738;9.226;2023-06-10T00:27:32;17.30;72.20
1379;DHT22;683;48.738;9.226;2023-06-10T00:30:02;17.30;72.50
1379;DHT22;683;48.738;9.226;2023-06-10T00:32:32;17.20;72.80
1379;DHT22;683;48.738;9.226;2023-06-10T00:35:02;17.20;73.20
1379;DHT22;683;48.738;9.226;2023-06-10T00:37:31;17.10;73.60
1379;DHT22;683;48.738;9.226;2023-06-10T00:39:58;17.10;74.30
1379;DHT22;683;48.738;9.226;2023-06-10T00:42:26;17.10;74.60
1379;DHT22;683;48.738;9.226;2023-06-10T00:44:54;17.00;74.80
1379;DHT22;683;48.738;9.226;2023-06-10T00:47:22;17.00;75.20
1379;DHT22;683;48.738;9.226;2023-06-10T00:49:51;17.00;75.60
1379;DHT22;683;48.738;9.226;2023-06-10T00:52:19;16.90;75.70
1379;DHT22;683;48.738;9.226;2023-06-10T00:54:49;16.90;76.20
1379;DHT22;683;48.738;9.226;2023-06-10T00:57:17;16.90;76.50
1379;DHT22;683;48.738;9.226;2023-06-10T00:59:48;16.80;76.90
1379;DHT22;683;48.738;9.226;2023-06-10T01:02:16;16.80;77.10
1379;DHT22;683;48.738;9.226;2023-06-10T01:04:43;16.80;77.40
1379;DHT22;683;48.738;9.226;2023-06-10T01:07:19;16.80;77.70
1379;DHT22;683;48.738;9.226;2023-06-10T01:09:54;16.80;78.00
1379;DHT22;683;48.738;9.226;2023-06-10T01:12:30;16.70;78.20
1379;DHT22;683;48.738;9.226;2023-06-10T01:14:59;16.70;78.50
1379;DHT22;683;48.738;9.226;2023-06-10T01:17:28;16.70;79.00
1379;DHT22;683;48.738;9.226;2023-06-10T01:19:56;16.70;79.20
1379;DHT22;683;48.738;9.226;2023-06-10T01:22:27;16.70;79.50
1379;DHT22;683;48.738;9.226;2023-06-10T01:24:58;16.60;79.60
1379;DHT22;683;48.738;9.226;2023-06-10T01:27:29;16.60;79.90
1379;DHT22;683;48.738;9.226;2023-06-10T01:30:01;16.60;80.00
1379;DHT22;683;48.738;9.226;2023-06-10T01:32:34;16.60;80.30
1379;DHT22;683;48.738;9.226;2023-06-10T01:35:05;16.60;80.70
1379;DHT22;683;48.738;9.226;2023-06-10T01:37:39;16.50;80.70
1379;DHT22;683;48.738;9.226;2023-06-10T01:40:07;16.50;81.00
1379;DHT22;683;48.738;9.226;2023-06-10T01:42:35;16.50;81.30
1379;DHT22;683;48.738;9.226;2023-06-10T01:45:04;16.50;81.50
1379;DHT22;683;48.738;9.226;2023-06-10T01:47:32;16.50;81.90
1379;DHT22;683;48.738;9.226;2023-06-10T01:49:59;16.50;82.20
1379;DHT22;683;48.738;9.226;2023-06-10T01:52:29;16.40;82.20
1379;DHT22;683;48.738;9.226;2023-06-10T01:54:58;16.40;82.40
1379;DHT22;683;48.738;9.226;2023-06-10T01:57:25;16.40;82.50
1379;DHT22;683;48.738;9.226;2023-06-10T01:59:53;16.40;82.70
1379;DHT22;683;48.738;9.226;2023-06-10T02:02:20;16.40;82.60
1379;DHT22;683;48.738;9.226;2023-06-10T02:04:48;16.40;82.80
1379;DHT22;683;48.738;9.226;2023-06-10T02:07:16;16.40;82.90
1379;DHT22;683;48.738;9.226;2023-06-10T02:09:44;16.40;83.00
1379;DHT22;683;48.738;9.226;2023-06-10T02:12:13;16.30;83.70
1379;DHT22;683;48.738;9.226;2023-06-10T02:14:40;16.30;83.40
1379;DHT22;683;48.738;9.226;2023-06-10T02:17:08;16.30;83.50
1379;DHT22;683;48.738;9.226;2023-06-10T02:19:41;16.30;83.80
1379;DHT22;683;48.738;9.226;2023-06-10T02:22:09;16.20;83.80
1379;DHT22;683;48.738;9.226;2023-06-10T02:24:37;16.20;84.00
1379;DHT22;683;48.738;9.226;2023-06-10T02:27:05;16.20;84.30
1379;DHT22;683;48.738;9.226;2023-06-10T02:29:35;16.10;84.30
1379;DHT22;683;48.738;9.226;2023-06-10T02:32:04;16.10;84.50
1379;DHT22;683;48.738;9.226;2023-06-10T02:34:32;16.10;84.60
1379;DHT22;683;48.738;9.226;2023-06-10T02:37:00;16.10;84.80
1379;DHT22;683;48.738;9.226;2023-06-10T02:39:29;16.10;85.10
1379;DHT22;683;48.738;9.226;2023-06-10T02:41:56;16.00;85.10
1379;DHT22;683;48.738;9.226;2023-06-10T02:44:24;16.00;85.10
1379;DHT22;683;48.738;9.226;2023-06-10T02:46:53;16.00;85.20
1379;DHT22;683;48.738;9.226;2023-06-10T02:49:21;15.90;85.40
1379;DHT22;683;48.738;9.226;2023-06-10T02:51:49;15.90;85.70
1379;DHT22;683;48.738;9.226;2023-06-10T02:54:20;15.90;86.00
1379;DHT22;683;48.738;9.226;2023-06-10T02:56:48;15.80;86.20
1379;DHT22;683;48.738;9.226;2023-06-10T02:59:20;15.80;86.30
1379;DHT22;683;48.738;9.226;2023-06-10T03:01:48;15.70;86.80
1379;DHT22;683;48.738;9.226;2023-06-10T03:04:17;15.70;87.10
1379;DHT22;683;48.738;9.226;2023-06-10T03:06:53;15.70;87.30
1379;DHT22;683;48.738;9.226;2023-06-10T03:09:29;15.60;87.50
1379;DHT22;683;48.738;9.226;2023-06-10T03:11:58;15.60;87.80
1379;DHT22;683;48.738;9.226;2023-06-10T03:14:29;15.60;88.10
1379;DHT22;683;48.738;9.226;2023-06-10T03:16:57;15.60;88.30
1379;DHT22;683;48.738;9.226;2023-06-10T03:19:27;15.60;88.50
1379;DHT22;683;48.738;9.226;2023-06-10T03:21:58;15.50;88.60
1379;DHT22;683;48.738;9.226;2023-06-10T03:24:34;15.50;88.90
1379;DHT22;683;48.738;9.226;2023-06-10T03:27:04;15.50;89.10
1379;DHT22;683;48.738;9.226;2023-06-10T03:29:32;15.50;89.40
1379;DHT22;683;48.738;9.226;2023-06-10T03:32:00;15.40;89.50
1379;DHT22;683;48.738;9.226;2023-06-10T03:34:29;15.40;89.90
1379;DHT22;683;48.738;9.226;2023-06-10T03:36:58;15.40;90.10
1379;DHT22;683;48.738;9.226;2023-06-10T03:39:25;15.40;90.30
1379;DHT22;683;48.738;9.226;2023-06-10T03:41:56;15.40;90.40
1379;DHT22;683;48.738;9.226;2023-06-10T03:44:25;15.40;90.60
1379;DHT22;683;48.738;9.226;2023-06-10T03:46:54;15.40;90.70
1379;DHT22;683;48.738;9.226;2023-06-10T03:49:22;15.40;90.80
1379;DHT22;683;48.738;9.226;2023-06-10T03:51:57;15.40;90.80
1379;DHT22;683;48.738;9.226;2023-06-10T03:54:25;15.40;90.80
1379;DHT22;683;48.738;9.226;2023-06-10T03:56:53;15.40;90.90
1379;DHT22;683;48.738;9.226;2023-06-10T03:59:21;15.40;90.90
1379;DHT22;683;48.738;9.226;2023-06-10T04:01:48;15.40;91.00
1379;DHT22;683;48.738;9.226;2023-06-10T04:04:16;15.40;91.00
1379;DHT22;683;48.738;9.226;2023-06-10T04:06:44;15.50;91.20
1379;DHT22;683;48.738;9.226;2023-06-10T04:09:13;15.50;91.30
1379;DHT22;683;48.738;9.226;2023-06-10T04:11:41;15.50;91.40
1379;DHT22;683;48.738;9.226;2023-06-10T04:14:09;15.60;91.50
1379;DHT22;683;48.738;9.226;2023-06-10T04:16:38;15.50;91.50
1379;DHT22;683;48.738;9.226;2023-06-10T04:19:06;15.60;91.50
1379;DHT22;683;48.738;9.226;2023-06-10T04:21:34;15.70;91.50
1379;DHT22;683;48.738;9.226;2023-06-10T04:24:02;15.70;91.50
1379;DHT22;683;48.738;9.226;2023-06-10T04:26:31;15.70;91.60
1379;DHT22;683;48.738;9.226;2023-06-10T04:28:59;15.80;91.70
1379;DHT22;683;48.738;9.226;2023-06-10T04:31:28;15.80;91.70
1379;DHT22;683;48.738;9.226;2023-06-10T04:33:56;15.90;91.70
1379;DHT22;683;48.738;9.226;2023-06-10T04:36:24;16.00;91.70
1379;DHT22;683;48.738;9.226;2023-06-10T04:38:52;16.00;91.80
1379;DHT22;683;48.738;9.226;2023-06-10T04:41:20;16.10;91.80
1379;DHT22;683;48.738;9.226;2023-06-10T04:43:50;16.20;91.80
1379;DHT22;683;48.738;9.226;2023-06-10T04:46:17;16.30;91.70
1379;DHT22;683;48.738;9.226;2023-06-10T04:48:45;16.40;91.70
1379;DHT22;683;48.738;9.226;2023-06-10T04:51:13;16.50;91.60
1379;DHT22;683;48.738;9.226;2023-06-10T04:53:41;16.50;91.60
1379;DHT22;683;48.738;9.226;2023-06-10T04:56:08;16.60;91.50
1379;DHT22;683;48.738;9.226;2023-06-10T04:58:36;16.70;91.50
1379;DHT22;683;48.738;9.226;2023-06-10T05:01:04;16.80;91.50
1379;DHT22;683;48.738;9.226;2023-06-10T05:03:32;16.90;91.40
1379;DHT22;683;48.738;9.226;2023-06-10T05:05:59;17.00;91.30
1379;DHT22;683;48.738;9.226;2023-06-10T05:08:27;17.10;91.20
1379;DHT22;683;48.738;9.226;2023-06-10T05:10:54;17.20;91.10
1379;DHT22;683;48.738;9.226;2023-06-10T05:13:22;17.30;90.90
1379;DHT22;683;48.738;9.226;2023-06-10T05:15:49;17.40;90.70
1379;DHT22;683;48.738;9.226;2023-06-10T05:18:18;17.50;90.50
1379;DHT22;683;48.738;9.226;2023-06-10T05:20:45;17.60;90.30
1379;DHT22;683;48.738;9.226;2023-06-10T05:23:13;17.70;90.10
1379;DHT22;683;48.738;9.226;2023-06-10T05:25:40;17.80;89.80
1379;DHT22;683;48.738;9.226;2023-06-10T05:28:08;17.90;89.20
1379;DHT22;683;48.738;9.226;2023-06-10T05:30:36;18.00;88.80
1379;DHT22;683;48.738;9.226;2023-06-10T05:33:04;18.10;88.20
1379;DHT22;683;48.738;9.226;2023-06-10T05:35:33;18.20;88.00
1379;DHT22;683;48.738;9.226;2023-06-10T05:38:00;18.30;87.90
1379;DHT22;683;48.738;9.226;2023-06-10T05:40:28;18.40;87.30
1379;DHT22;683;48.738;9.226;2023-06-10T05:42:55;18.50;86.80
1379;DHT22;683;48.738;9.226;2023-06-10T05:45:22;18.60;86.60
1379;DHT22;683;48.738;9.226;2023-06-10T05:47:50;18.70;86.40
1379;DHT22;683;48.738;9.226;2023-06-10T05:50:17;18.80;86.10
1379;DHT22;683;48.738;9.226;2023-06-10T05:52:46;18.90;85.60
1379;DHT22;683;48.738;9.226;2023-06-10T05:55:14;19.00;85.30
1379;DHT22;683;48.738;9.226;2023-06-10T05:57:42;19.10;85.20
1379;DHT22;683;48.738;9.226;2023-06-10T06:00:10;19.10;85.00
1379;DHT22;683;48.738;9.226;2023-06-10T06:02:40;19.20;84.70
1379;DHT22;683;48.738;9.226;2023-06-10T06:05:08;19.30;84.20
1379;DHT22;683;48.738;9.226;2023-06-10T06:07:36;19.40;83.90
1379;DHT22;683;48.738;9.226;2023-06-10T06:10:05;19.50;83.90
1379;DHT22;683;48.738;9.226;2023-06-10T06:12:33;19.60;83.80
1379;DHT22;683;48.738;9.226;2023-06-10T06:15:01;19.70;83.50
1379;DHT22;683;48.738;9.226;2023-06-10T06:17:29;19.90;83.40
1379;DHT22;683;48.738;9.226;2023-06-10T06:19:56;20.10;82.00
1379;DHT22;683;48.738;9.226;2023-06-10T06:22:24;20.20;81.00
1379;DHT22;683;48.738;9.226;2023-06-10T06:24:51;20.30;80.20
1379;DHT22;683;48.738;9.226;2023-06-10T06:27:20;20.30;80.00
1379;DHT22;683;48.738;9.226;2023-06-10T06:29:48;20.40;79.60
1379;DHT22;683;48.738;9.226;2023-06-10T06:32:16;20.50;78.70
1379;DHT22;683;48.738;9.226;2023-06-10T06:34:44;20.50;78.40
1379;DHT22;683;48.738;9.226;2023-06-10T06:37:11;20.60;78.00
1379;DHT22;683;48.738;9.226;2023-06-10T06:39:42;20.70;77.90
1379;DHT22;683;48.738;9.226;2023-06-10T06:42:09;20.80;76.10
1379;DHT22;683;48.738;9.226;2023-06-10T06:44:48;20.90;75.80
1379;DHT22;683;48.738;9.226;2023-06-10T06:47:15;21.00;75.70
1379;DHT22;683;48.738;9.226;2023-06-10T06:49:45;21.10;75.10
1379;DHT22;683;48.738;9.226;2023-06-10T06:52:13;21.10;74.70
1379;DHT22;683;48.738;9.226;2023-06-10T06:54:40;21.10;74.60
1379;DHT22;683;48.738;9.226;2023-06-10T06:57:08;21.10;74.80
1379;DHT22;683;48.738;9.226;2023-06-10T06:59:36;21.20;75.20
1379;DHT22;683;48.738;9.226;2023-06-10T07:02:05;21.20;75.40
1379;DHT22;683;48.738;9.226;2023-06-10T07:04:33;21.30;75.00
1379;DHT22;683;48.738;9.226;2023-06-10T07:07:01;21.30;74.50
1379;DHT22;683;48.738;9.226;2023-06-10T07:09:28;21.30;74.40
1379;DHT22;683;48.738;9.226;2023-06-10T07:11:56;21.30;74.40
1379;DHT22;683;48.738;9.226;2023-06-10T07:14:23;21.40;74.20
1379;DHT22;683;48.738;9.226;2023-06-10T07:16:51;21.30;74.00
1379;DHT22;683;48.738;9.226;2023-06-10T07:19:19;21.30;73.80
1379;DHT22;683;48.738;9.226;2023-06-10T07:21:47;21.40;74.10
1379;DHT22;683;48.738;9.226;2023-06-10T07:24:14;21.50;74.30
1379;DHT22;683;48.738;9.226;2023-06-10T07:26:42;21.60;73.80
1379;DHT22;683;48.738;9.226;2023-06-10T07:29:10;21.60;73.30
1379;DHT22;683;48.738;9.226;2023-06-10T07:31:37;21.60;72.90
1379;DHT22;683;48.738;9.226;2023-06-10T07:34:04;21.70;72.60
1379;DHT22;683;48.738;9.226;2023-06-10T07:36:33;21.80;72.70
1379;DHT22;683;48.738;9.226;2023-06-10T07:39:01;21.80;72.80
1379;DHT22;683;48.738;9.226;2023-06-10T07:41:28;21.90;73.00
1379;DHT22;683;48.738;9.226;2023-06-10T07:43:56;22.00;72.60
1379;DHT22;683;48.738;9.226;2023-06-10T07:46:23;22.10;72.20
1379;DHT22;683;48.738;9.226;2023-06-10T07:48:53;22.10;72.00
1379;DHT22;683;48.738;9.226;2023-06-10T07:51:21;22.20;71.90
1379;DHT22;683;48.738;9.226;2023-06-10T07:53:50;22.20;71.80
1379;DHT22;683;48.738;9.226;2023-06-10T07:56:18;22.30;71.50
1379;DHT22;683;48.738;9.226;2023-06-10T07:58:47;22.30;71.10
1379;DHT22;683;48.738;9.226;2023-06-10T08:01:15;22.40;71.20
1379;DHT22;683;48.738;9.226;2023-06-10T08:03:42;22.50;71.00
1379;DHT22;683;48.738;9.226;2023-06-10T08:06:10;22.50;70.60
1379;DHT22;683;48.738;9.226;2023-06-10T08:08:38;22.50;70.50
1379;DHT22;683;48.738;9.226;2023-06-10T08:11:11;22.60;70.50
1379;DHT22;683;48.738;9.226;2023-06-10T08:13:38;22.60;70.10
1379;DHT22;683;48.738;9.226;2023-06-10T08:16:06;22.60;70.10
1379;DHT22;683;48.738;9.226;2023-06-10T08:18:33;22.70;70.00
1379;DHT22;683;48.738;9.226;2023-06-10T08:21:01;22.80;69.90
1379;DHT22;683;48.738;9.226;2023-06-10T08:23:28;22.80;69.50
1379;DHT22;683;48.738;9.226;2023-06-10T08:25:56;22.80;69.50
1379;DHT22;683;48.738;9.226;2023-06-10T08:28:25;22.90;69.20
1379;DHT22;683;48.738;9.226;2023-06-10T08:30:52;22.90;68.90
1379;DHT22;683;48.738;9.226;2023-06-10T08:33:20;23.00;69.10
1379;DHT22;683;48.738;9.226;2023-06-10T08:35:47;23.00;69.60
1379;DHT22;683;48.738;9.226;2023-06-10T08:38:15;23.00;69.20
1379;DHT22;683;48.738;9.226;2023-06-10T08:40:43;23.10;69.30
1379;DHT22;683;48.738;9.226;2023-06-10T08:43:17;23.20;69.20
1379;DHT22;683;48.738;9.226;2023-06-10T08:45:51;23.20;69.50
1379;DHT22;683;48.738;9.226;2023-06-10T08:48:19;23.30;69.40
1379;DHT22;683;48.738;9.226;2023-06-10T08:50:47;23.30;69.20
1379;DHT22;683;48.738;9.226;2023-06-10T08:53:18;23.40;69.30
1379;DHT22;683;48.738;9.226;2023-06-10T08:55:50;23.50;69.20
1379;DHT22;683;48.738;9.226;2023-06-10T08:58:19;23.60;67.90
1379;DHT22;683;48.738;9.226;2023-06-10T09:00:47;23.70;67.10
1379;DHT22;683;48.738;9.226;2023-06-10T09:03:16;23.70;66.20
1379;DHT22;683;48.738;9.226;2023-06-10T09:05:44;23.70;67.50
1379;DHT22;683;48.738;9.226;2023-06-10T09:08:12;23.80;66.00
1379;DHT22;683;48.738;9.226;2023-06-10T09:10:40;23.90;67.20
1379;DHT22;683;48.738;9.226;2023-06-10T09:13:08;24.00;66.80
1379;DHT22;683;48.738;9.226;2023-06-10T09:15:35;24.10;66.40
1379;DHT22;683;48.738;9.226;2023-06-10T09:18:03;24.10;65.80
1379;DHT22;683;48.738;9.226;2023-06-10T09:20:32;24.20;65.60
1379;DHT22;683;48.738;9.226;2023-06-10T09:23:00;24.30;65.00
1379;DHT22;683;48.738;9.226;2023-06-10T09:25:35;24.40;65.00
1379;DHT22;683;48.738;9.226;2023-06-10T09:28:04;24.70;65.20
1379;DHT22;683;48.738;9.226;2023-06-10T09:30:33;25.00;64.50
1379;DHT22;683;48.738;9.226;2023-06-10T09:33:02;25.20;63.60
1379;DHT22;683;48.738;9.226;2023-06-10T09:35:32;25.40;61.70
1379;DHT22;683;48.738;9.226;2023-06-10T09:38:00;25.60;61.00
1379;DHT22;683;48.738;9.226;2023-06-10T09:40:29;25.70;60.10
1379;DHT22;683;48.738;9.226;2023-06-10T09:42:58;25.80;59.40
1379;DHT22;683;48.738;9.226;2023-06-10T09:45:30;25.90;58.80
1379;DHT22;683;48.738;9.226;2023-06-10T09:47:58;25.90;59.20
1379;DHT22;683;48.738;9.226;2023-06-10T09:50:26;26.00;59.30
1379;DHT22;683;48.738;9.226;2023-06-10T09:52:54;26.00;58.90
1379;DHT22;683;48.738;9.226;2023-06-10T09:55:23;25.90;57.70
1379;DHT22;683;48.738;9.226;2023-06-10T09:57:53;25.80;57.90
1379;DHT22;683;48.738;9.226;2023-06-10T10:00:22;25.90;58.10
1379;DHT22;683;48.738;9.226;2023-06-10T10:02:52;25.90;57.70
1379;DHT22;683;48.738;9.226;2023-06-10T10:05:21;26.00;57.80
1379;DHT22;683;48.738;9.226;2023-06-10T10:07:49;26.00;57.90
1379;DHT22;683;48.738;9.226;2023-06-10T10:10:20;26.00;57.40
1379;DHT22;683;48.738;9.226;2023-06-10T10:12:48;26.00;57.30
1379;DHT22;683;48.738;9.226;2023-06-10T10:15:18;25.80;57.60
1379;DHT22;683;48.738;9.226;2023-06-10T10:17:50;25.70;58.00
1379;DHT22;683;48.738;9.226;2023-06-10T10:20:22;25.80;58.50
1379;DHT22;683;48.738;9.226;2023-06-10T10:22:52;25.80;58.00
1379;DHT22;683;48.738;9.226;2023-06-10T10:25:27;25.90;57.50
1379;DHT22;683;48.738;9.226;2023-06-10T10:27:58;25.90;57.60
1379;DHT22;683;48.738;9.226;2023-06-10T10:30:28;25.80;57.30
1379;DHT22;683;48.738;9.226;2023-06-10T10:32:58;25.90;57.60
1379;DHT22;683;48.738;9.226;2023-06-10T10:35:27;26.00;56.90
1379;DHT22;683;48.738;9.226;2023-06-10T10:37:55;26.00;56.80
1379;DHT22;683;48.738;9.226;2023-06-10T10:40:25;26.10;56.60
1379;DHT22;683;48.738;9.226;2023-06-10T10:42:56;26.30;56.50
1379;DHT22;683;48.738;9.226;2023-06-10T10:45:23;26.50;54.90
1379;DHT22;683;48.738;9.226;2023-06-10T10:47:53;26.50;55.50
1379;DHT22;683;48.738;9.226;2023-06-10T10:50:22;26.80;55.00
1379;DHT22;683;48.738;9.226;2023-06-10T10:52:57;26.90;54.50
1379;DHT22;683;48.738;9.226;2023-06-10T10:55:28;26.90;54.00
1379;DHT22;683;48.738;9.226;2023-06-10T10:57:57;26.90;53.80
1379;DHT22;683;48.738;9.226;2023-06-10T11:00:27;26.80;53.90
1379;DHT22;683;48.738;9.226;2023-06-10T11:02:58;26.80;54.40
1379;DHT22;683;48.738;9.226;2023-06-10T11:05:35;26.90;55.10
1379;DHT22;683;48.738;9.226;2023-06-10T11:08:04;26.80;56.00
1379;DHT22;683;48.738;9.226;2023-06-10T11:10:34;26.80;56.20
1379;DHT22;683;48.738;9.226;2023-06-10T11:13:06;26.80;53.90
1379;DHT22;683;48.738;9.226;2023-06-10T11:15:39;26.90;54.70
1379;DHT22;683;48.738;9.226;2023-06-10T11:18:15;27.00;53.10
1379;DHT22;683;48.738;9.226;2023-06-10T11:20:51;27.10;52.80
1379;DHT22;683;48.738;9.226;2023-06-10T11:23:33;27.30;53.90
1379;DHT22;683;48.738;9.226;2023-06-10T11:26:20;27.40;53.90
1379;DHT22;683;48.738;9.226;2023-06-10T11:29:18;27.60;53.60
1379;DHT22;683;48.738;9.226;2023-06-10T11:31:50;27.70;52.50
1379;DHT22;683;48.738;9.226;2023-06-10T11:34:24;27.90;52.10
1379;DHT22;683;48.738;9.226;2023-06-10T11:36:53;28.10;51.40
1379;DHT22;683;48.738;9.226;2023-06-10T11:39:21;28.10;52.40
1379;DHT22;683;48.738;9.226;2023-06-10T11:41:53;28.20;52.10
1379;DHT22;683;48.738;9.226;2023-06-10T11:44:21;28.30;52.20
1379;DHT22;683;48.738;9.226;2023-06-10T11:46:49;28.40;52.40
1379;DHT22;683;48.738;9.226;2023-06-10T11:49:17;28.40;50.70
1379;DHT22;683;48.738;9.226;2023-06-10T11:51:45;28.40;51.10
1379;DHT22;683;48.738;9.226;2023-06-10T11:54:17;28.30;52.50
1379;DHT22;683;48.738;9.226;2023-06-10T11:56:46;28.20;51.80
1379;DHT22;683;48.738;9.226;2023-06-10T11:59:15;28.20;51.10
1379;DHT22;683;48.738;9.226;2023-06-10T12:01:44;28.20;51.50
1379;DHT22;683;48.738;9.226;2023-06-10T12:04:13;28.10;52.70
1379;DHT22;683;48.738;9.226;2023-06-10T12:06:42;28.10;52.70
1379;DHT22;683;48.738;9.226;2023-06-10T12:09:18;27.90;53.20
1379;DHT22;683;48.738;9.226;2023-06-10T12:11:48;27.70;52.60
1379;DHT22;683;48.738;9.226;2023-06-10T12:14:50;27.60;52.60
1379;DHT22;683;48.738;9.226;2023-06-10T12:17:21;27.60;52.70
1379;DHT22;683;48.738;9.226;2023-06-10T12:19:49;27.80;52.50
1379;DHT22;683;48.738;9.226;2023-06-10T12:22:16;28.20;51.70
1379;DHT22;683;48.738;9.226;2023-06-10T12:24:56;28.60;51.00
1379;DHT22;683;48.738;9.226;2023-06-10T12:27:25;29.20;49.70
1379;DHT22;683;48.738;9.226;2023-06-10T12:29:56;29.70;49.30
1379;DHT22;683;48.738;9.226;2023-06-10T12:32:35;29.90;48.50
1379;DHT22;683;48.738;9.226;2023-06-10T12:35:04;29.90;48.30
1379;DHT22;683;48.738;9.226;2023-06-10T12:37:32;30.00;47.70
1379;DHT22;683;48.738;9.226;2023-06-10T12:40:01;30.10;47.90
1379;DHT22;683;48.738;9.226;2023-06-10T12:42:29;30.10;47.90
1379;DHT22;683;48.738;9.226;2023-06-10T12:44:59;30.30;48.40
1379;DHT22;683;48.738;9.226;2023-06-10T12:47:32;30.70;47.30
1379;DHT22;683;48.738;9.226;2023-06-10T12:50:02;31.20;46.80
1379;DHT22;683;48.738;9.226;2023-06-10T12:52:30;31.90;45.30
1379;DHT22;683;48.738;9.226;2023-06-10T12:54:58;32.70;43.90
1379;DHT22;683;48.738;9.226;2023-06-10T12:57:26;33.40;43.10
1379;DHT22;683;48.738;9.226;2023-06-10T12:59:54;33.70;42.10
1379;DHT22;683;48.738;9.226;2023-06-10T13:02:27;34.00;40.80
1379;DHT22;683;48.738;9.226;2023-06-10T13:04:55;34.30;40.40
1379;DHT22;683;48.738;9.226;2023-06-10T13:07:22;33.90;40.70
1379;DHT22;683;48.738;9.226;2023-06-10T13:09:50;33.30;41.80
1379;DHT22;683;48.738;9.226;2023-06-10T13:12:18;32.90;42.60
1379;DHT22;683;48.738;9.226;2023-06-10T13:14:46;33.20;41.10
1379;DHT22;683;48.738;9.226;2023-06-10T13:17:14;33.50;40.90
1379;DHT22;683;48.738;9.226;2023-06-10T13:19:44;33.30;41.20
1379;DHT22;683;48.738;9.226;2023-06-10T13:22:11;32.80;41.60
1379;DHT22;683;48.738;9.226;2023-06-10T13:24:39;32.20;42.10
1379;DHT22;683;48.738;9.226;2023-06-10T13:27:07;31.70;43.30
1379;DHT22;683;48.738;9.226;2023-06-10T13:29:34;31.30;43.90
1379;DHT22;683;48.738;9.226;2023-06-10T13:32:02;31.60;43.90
1379;DHT22;683;48.738;9.226;2023-06-10T13:34:29;32.40;43.10
1379;DHT22;683;48.738;9.226;2023-06-10T13:36:58;32.90;40.80
1379;DHT22;683;48.738;9.226;2023-06-10T13:39:25;33.90;40.20
1379;DHT22;683;48.738;9.226;2023-06-10T13:41:53;35.10;38.60
1379;DHT22;683;48.738;9.226;2023-06-10T13:44:21;36.40;36.80
1379;DHT22;683;48.738;9.226;2023-06-10T13:46:48;37.50;34.80
1379;DHT22;683;48.738;9.226;2023-06-10T13:49:16;38.60;33.00
1379;DHT22;683;48.738;9.226;2023-06-10T13:51:43;39.80;31.40
1379;DHT22;683;48.738;9.226;2023-06-10T13:54:13;40.80;29.90
1379;DHT22;683;48.738;9.226;2023-06-10T13:56:41;41.50;28.40
1379;DHT22;683;48.738;9.226;2023-06-10T13:59:09;41.60;28.70
1379;DHT22;683;48.738;9.226;2023-06-10T14:01:36;41.40;28.40
1379;DHT22;683;48.738;9.226;2023-06-10T14:04:05;41.70;28.20
1379;DHT22;683;48.738;9.226;2023-06-10T14:06:32;42.40;27.40
1379;DHT22;683;48.738;9.226;2023-06-10T14:09:00;43.20;26.30
1379;DHT22;683;48.738;9.226;2023-06-10T14:11:29;43.80;26.00
1379;DHT22;683;48.738;9.226;2023-06-10T14:13:57;44.40;25.90
1379;DHT22;683;48.738;9.226;2023-06-10T14:16:26;44.80;25.60
1379;DHT22;683;48.738;9.226;2023-06-10T14:18:54;44.00;25.80
1379;DHT22;683;48.738;9.226;2023-06-10T14:21:22;42.30;26.90
1379;DHT22;683;48.738;9.226;2023-06-10T14:23:49;40.70;28.30
1379;DHT22;683;48.738;9.226;2023-06-10T14:26:18;38.90;29.90
1379;DHT22;683;48.738;9.226;2023-06-10T14:28:49;37.30;31.30
1379;DHT22;683;48.738;9.226;2023-06-10T14:31:16;36.10;32.90
1379;DHT22;683;48.738;9.226;2023-06-10T14:33:44;35.00;34.00
1379;DHT22;683;48.738;9.226;2023-06-10T14:36:11;34.20;35.10
1379;DHT22;683;48.738;9.226;2023-06-10T14:38:39;33.60;36.40
1379;DHT22;683;48.738;9.226;2023-06-10T14:41:06;33.60;37.10
1379;DHT22;683;48.738;9.226;2023-06-10T14:43:34;34.90;36.40
1379;DHT22;683;48.738;9.226;2023-06-10T14:46:03;36.90;34.20
1379;DHT22;683;48.738;9.226;2023-06-10T14:48:31;38.40;31.90
1379;DHT22;683;48.738;9.226;2023-06-10T14:50:58;38.50;31.40
1379;DHT22;683;48.738;9.226;2023-06-10T14:53:26;37.90;31.50
1379;DHT22;683;48.738;9.226;2023-06-10T14:55:53;37.10;32.70
1379;DHT22;683;48.738;9.226;2023-06-10T14:58:21;37.10;32.60
1379;DHT22;683;48.738;9.226;2023-06-10T15:00:48;36.70;33.20
1379;DHT22;683;48.738;9.226;2023-06-10T15:03:17;36.10;33.90
1379;DHT22;683;48.738;9.226;2023-06-10T15:05:45;35.50;34.20
1379;DHT22;683;48.738;9.226;2023-06-10T15:08:13;35.20;34.70
1379;DHT22;683;48.738;9.226;2023-06-10T15:10:40;34.60;36.00
1379;DHT22;683;48.738;9.226;2023-06-10T15:13:08;34.90;36.50
1379;DHT22;683;48.738;9.226;2023-06-10T15:15:36;36.10;34.60
1379;DHT22;683;48.738;9.226;2023-06-10T15:18:03;37.50;33.50
1379;DHT22;683;48.738;9.226;2023-06-10T15:20:32;38.80;31.10
1379;DHT22;683;48.738;9.226;2023-06-10T15:23:00;40.00;30.10
1379;DHT22;683;48.738;9.226;2023-06-10T15:25:27;41.00;29.20
1379;DHT22;683;48.738;9.226;2023-06-10T15:27:55;42.00;28.50
1379;DHT22;683;48.738;9.226;2023-06-10T15:30:23;43.00;27.60
1379;DHT22;683;48.738;9.226;2023-06-10T15:32:50;43.60;26.70
1379;DHT22;683;48.738;9.226;2023-06-10T15:35:18;44.00;26.30
1379;DHT22;683;48.738;9.226;2023-06-10T15:37:47;44.20;25.90
1379;DHT22;683;48.738;9.226;2023-06-10T15:40:14;44.10;25.80
1379;DHT22;683;48.738;9.226;2023-06-10T15:42:42;44.00;25.90
1379;DHT22;683;48.738;9.226;2023-06-10T15:45:10;43.80;26.10
1379;DHT22;683;48.738;9.226;2023-06-10T15:47:37;42.70;26.80
1379;DHT22;683;48.738;9.226;2023-06-10T15:50:07;41.40;27.80
1379;DHT22;683;48.738;9.226;2023-06-10T15:52:35;40.10;28.80
1379;DHT22;683;48.738;9.226;2023-06-10T15:55:04;39.00;30.10
1379;DHT22;683;48.738;9.226;2023-06-10T15:57:32;38.70;30.10
1379;DHT22;683;48.738;9.226;2023-06-10T15:59:59;39.20;29.50
1379;DHT22;683;48.738;9.226;2023-06-10T16:02:27;39.80;28.60
1379;DHT22;683;48.738;9.226;2023-06-10T16:04:54;40.00;28.20
1379;DHT22;683;48.738;9.226;2023-06-10T16:07:22;40.30;27.90
1379;DHT22;683;48.738;9.226;2023-06-10T16:09:49;40.80;27.40
1379;DHT22;683;48.738;9.226;2023-06-10T16:12:18;41.20;26.40
1379;DHT22;683;48.738;9.226;2023-06-10T16:14:46;41.40;26.60
1379;DHT22;683;48.738;9.226;2023-06-10T16:17:14;41.60;26.80
1379;DHT22;683;48.738;9.226;2023-06-10T16:19:41;41.80;26.30
1379;DHT22;683;48.738;9.226;2023-06-10T16:22:08;41.90;26.60
1379;DHT22;683;48.738;9.226;2023-06-10T16:24:36;42.10;26.20
1379;DHT22;683;48.738;9.226;2023-06-10T16:27:04;42.30;26.20